Time;durP1;ratioP1;P1;durP2;ratioP2;P2;SDS_P1;SDS_P2;PMS_P1;PMS_P2;Temp;Humidity;BMP_temperature;BMP_pressure;BME280_temperature;BME280_humidity;BME280_pressure;Samples;Min_cycle;Max_cycle;Signal;HPM_P1;HPM_P2
2023/10/24 00:00:16;;;;;;;16.67;5.07;;;;;;;13.13;66.83;94980.00;5050257;28;20528;-73
2023/10/24 00:02:42;;;;;;;16.80;5.25;;;;;;;13.07;67.61;94993.59;5063988;28;20509;-73
2023/10/24 00:05:07;;;;;;;13.50;4.95;;;;;;;13.18;66.96;94992.66;5067764;28;20090;-73
2023/10/24 00:07:33;;;;;;;14.95;5.38;;;;;;;13.14;67.25;94993.88;5060944;28;20029;-73
2023/10/24 00:09:59;;;;;;;16.63;4.78;;;;;;;12.48;69.40;94990.13;5031629;28;20075;-73
2023/10/24 00:12:24;;;;;;;21.35;5.32;;;;;;;12.39;69.43;94995.31;5062280;28;20040;-73
2023/10/24 00:14:49;;;;;;;11.48;4.45;;;;;;;12.67;68.58;94988.50;5068203;28;20059;-73
2023/10/24 00:17:15;;;;;;;17.15;4.60;;;;;;;12.29;69.80;94995.31;5064617;28;20086;-73
2023/10/24 00:19:40;;;;;;;17.48;5.22;;;;;;;12.47;68.97;94987.66;5067287;28;20434;-73
2023/10/24 00:22:06;;;;;;;12.93;5.20;;;;;;;12.52;68.77;94981.06;5063416;28;20028;-73
2023/10/24 00:24:31;;;;;;;18.27;4.82;;;;;;;12.53;69.18;94977.50;5050307;28;20533;-73
2023/10/24 00:26:57;;;;;;;10.27;4.53;;;;;;;12.61;69.00;94978.63;5065785;28;20510;-73
2023/10/24 00:29:23;;;;;;;16.10;5.68;;;;;;;12.74;68.56;94977.41;5065295;28;20033;-73
2023/10/24 00:31:48;;;;;;;16.25;5.25;;;;;;;12.73;68.61;94977.53;5028798;28;20411;-73
2023/10/24 00:34:14;;;;;;;14.60;4.63;;;;;;;12.71;68.60;94982.06;5065397;28;20028;-73
2023/10/24 00:36:40;;;;;;;13.20;4.53;;;;;;;12.73;68.53;94977.53;5049214;28;20028;-73
2023/10/24 00:39:06;;;;;;;11.52;4.63;;;;;;;12.70;68.64;94983.00;5050157;28;20065;-73
2023/10/24 00:41:31;;;;;;;14.60;5.32;;;;;;;12.64;68.54;94973.94;5065321;28;20107;-73
2023/10/24 00:43:57;;;;;;;12.18;4.47;;;;;;;12.74;68.55;94973.97;5046306;28;20044;-73
2023/10/24 00:46:23;;;;;;;11.27;4.47;;;;;;;12.69;68.41;94973.56;5067285;28;20052;-73
2023/10/24 00:48:48;;;;;;;14.02;4.80;;;;;;;12.69;68.51;94970.94;5048226;28;20020;-73
2023/10/24 00:51:14;;;;;;;11.02;4.65;;;;;;;12.77;68.17;94970.28;5068020;28;20036;-73
2023/10/24 00:53:39;;;;;;;10.15;4.55;;;;;;;12.66;68.30;94968.63;5063819;28;20043;-73
2023/10/24 00:56:05;;;;;;;10.70;4.13;;;;;;;12.78;68.02;94964.91;5047944;28;20215;-73
2023/10/24 00:58:30;;;;;;;17.08;4.40;;;;;;;12.53;68.28;94961.88;5047139;28;20094;-73
2023/10/24 01:00:56;;;;;;;12.63;4.22;;;;;;;12.57;68.40;94972.03;5046269;28;20522;-73
2023/10/24 01:03:21;;;;;;;10.27;4.35;;;;;;;12.74;67.95;94974.78;5044196;28;20040;-73
2023/10/24 01:05:47;;;;;;;12.73;4.45;;;;;;;12.62;68.10;94959.41;5033836;28;20066;-73
2023/10/24 01:08:12;;;;;;;14.00;4.72;;;;;;;12.65;68.43;94974.81;5027717;28;20094;-73
2023/10/24 01:10:38;;;;;;;8.80;4.78;;;;;;;12.68;67.94;94962.31;5065268;28;20016;-73
2023/10/24 01:13:04;;;;;;;15.43;5.55;;;;;;;12.58;68.11;94958.88;5046051;28;20606;-73
2023/10/24 01:15:29;;;;;;;22.67;5.05;;;;;;;12.50;68.48;94969.97;5064405;28;20071;-73
2023/10/24 01:17:55;;;;;;;14.85;5.05;;;;;;;12.35;68.00;94936.63;5064334;28;20048;-73
2023/10/24 01:20:21;;;;;;;10.35;4.18;;;;;;;12.59;67.80;94963.13;5050123;28;20024;-73
2023/10/24 01:22:46;;;;;;;13.77;4.80;;;;;;;12.21;68.93;94971.69;5062306;28;20086;-73
2023/10/24 01:25:13;;;;;;;13.27;4.82;;;;;;;12.46;68.52;94971.19;5065404;28;20035;-73
2023/10/24 01:27:40;;;;;;;14.73;5.07;;;;;;;12.18;69.50;94980.59;5048423;28;20024;-73
2023/10/24 01:30:06;;;;;;;13.00;4.88;;;;;;;12.07;69.63;94947.66;5066081;28;20028;-73
2023/10/24 01:32:31;;;;;;;13.90;4.80;;;;;;;12.03;69.83;94976.69;5045459;28;20043;-73
2023/10/24 01:34:57;;;;;;;9.93;4.10;;;;;;;12.27;69.16;94981.56;5047376;28;20055;-73
2023/10/24 01:37:22;;;;;;;16.27;4.97;;;;;;;12.35;68.44;94966.09;5060477;28;20087;-73
2023/10/24 01:39:47;;;;;;;15.98;4.80;;;;;;;12.15;69.41;94972.22;5048846;28;20094;-72
2023/10/24 01:42:13;;;;;;;15.25;4.60;;;;;;;12.18;69.42;94967.56;5063951;28;21339;-73
2023/10/24 01:44:38;;;;;;;9.82;4.10;;;;;;;12.19;69.35;94968.41;5061083;28;20029;-73
2023/10/24 01:47:04;;;;;;;12.57;5.25;;;;;;;12.09;69.59;94968.38;5064951;28;20472;-73
2023/10/24 01:49:29;;;;;;;10.35;4.70;;;;;;;12.00;70.09;94971.75;5067363;28;20028;-73
2023/10/24 01:51:54;;;;;;;17.30;5.07;;;;;;;12.11;69.70;94976.03;5061806;28;20033;-73
2023/10/24 01:54:20;;;;;;;13.50;4.88;;;;;;;12.10;69.60;94970.00;5047546;28;20127;-73
2023/10/24 01:56:46;;;;;;;12.77;4.70;;;;;;;12.02;69.88;94975.06;5045962;28;20091;-73
2023/10/24 01:59:11;;;;;;;13.20;4.38;;;;;;;12.07;69.51;94965.06;5033410;28;20126;-73
2023/10/24 02:01:37;;;;;;;9.95;3.95;;;;;;;12.19;68.99;94973.59;5045611;28;20021;-73
2023/10/24 02:04:03;;;;;;;15.15;4.80;;;;;;;12.08;69.38;94971.91;5064422;28;20032;-73
2023/10/24 02:06:28;;;;;;;14.73;4.70;;;;;;;12.05;69.07;94954.78;5065334;28;20536;-73
2023/10/24 02:08:53;;;;;;;11.07;4.43;;;;;;;12.10;69.29;94974.41;5062178;28;20041;-73
2023/10/24 02:11:19;;;;;;;10.77;5.10;;;;;;;12.11;69.13;94973.44;5046452;28;20028;-72
2023/10/24 02:13:44;;;;;;;11.32;4.32;;;;;;;12.05;69.36;94977.41;5045241;28;20044;-73
2023/10/24 02:16:09;;;;;;;12.57;4.45;;;;;;;11.89;69.68;94961.44;5068823;28;20491;-73
2023/10/24 02:18:35;;;;;;;12.30;4.43;;;;;;;12.01;69.63;94966.44;5068464;28;20057;-73
2023/10/24 02:21:06;;;;;;;12.32;4.47;;;;;;;12.01;69.48;94971.63;5068167;28;20417;-73
2023/10/24 02:23:32;;;;;;;13.25;4.60;;;;;;;12.04;69.33;94967.94;5065562;28;20418;-73
2023/10/24 02:25:57;;;;;;;17.25;4.55;;;;;;;11.95;69.58;94968.72;5052688;28;20028;-72
2023/10/24 02:28:23;;;;;;;15.65;4.57;;;;;;;11.93;70.19;94968.06;5050252;28;20122;-73
2023/10/24 02:30:48;;;;;;;13.35;4.47;;;;;;;11.88;70.53;94960.63;5070051;28;20422;-73
2023/10/24 02:33:13;;;;;;;14.57;4.97;;;;;;;11.94;70.19;94965.28;5065162;28;20025;-72
2023/10/24 02:35:39;;;;;;;12.90;4.47;;;;;;;11.93;70.10;94973.25;5069893;28;20021;-72
2023/10/24 02:38:06;;;;;;;13.10;4.10;;;;;;;11.88;70.72;94968.44;5061694;28;20090;-73
2023/10/24 02:40:31;;;;;;;11.98;4.30;;;;;;;11.80;70.58;94968.22;5052130;28;20056;-73
2023/10/24 02:42:57;;;;;;;13.55;5.65;;;;;;;11.80;70.91;94968.22;5066380;28;20080;-72
2023/10/24 02:45:23;;;;;;;14.10;5.22;;;;;;;11.81;70.22;94951.66;5069614;28;20028;-72
2023/10/24 02:47:48;;;;;;;12.65;4.63;;;;;;;11.91;70.28;94969.94;5065752;28;20025;-72
2023/10/24 02:50:14;;;;;;;12.25;4.75;;;;;;;11.98;69.96;94971.91;5068523;28;20488;-73
2023/10/24 02:52:39;;;;;;;10.40;4.40;;;;;;;11.87;70.32;94966.78;5032300;28;20032;-72
2023/10/24 02:55:06;;;;;;;10.52;4.10;;;;;;;11.82;70.37;94979.34;5067172;28;20024;-74
2023/10/24 02:57:31;;;;;;;11.05;4.65;;;;;;;11.83;70.84;94983.56;5066385;28;20029;-73
2023/10/24 02:59:56;;;;;;;14.13;4.50;;;;;;;11.75;70.56;94980.81;5067875;28;20044;-73
2023/10/24 03:02:22;;;;;;;11.48;4.97;;;;;;;11.92;69.91;94976.78;5064831;28;20020;-73
2023/10/24 03:04:47;;;;;;;13.38;4.05;;;;;;;11.74;70.49;94986.97;5066606;28;20042;-73
2023/10/24 03:07:13;;;;;;;6.78;3.50;;;;;;;11.70;70.54;94989.03;5051510;28;20482;-73
2023/10/24 03:09:38;;;;;;;15.32;4.63;;;;;;;11.79;70.92;94993.44;5050072;28;20474;-73
2023/10/24 03:12:09;;;;;;;12.48;4.63;;;;;;;11.68;69.99;94969.28;5048073;28;20028;-73
2023/10/24 03:14:34;;;;;;;10.68;4.28;;;;;;;11.59;70.08;94957.88;5062407;28;20419;-73
2023/10/24 03:17:00;;;;;;;16.38;4.50;;;;;;;11.48;70.43;94984.78;5067923;28;20052;-73
2023/10/24 03:19:27;;;;;;;9.48;4.45;;;;;;;11.81;69.29;94999.34;5069670;28;20072;-73
2023/10/24 03:21:53;;;;;;;13.23;4.30;;;;;;;11.72;69.50;95001.88;5064959;28;20037;-73
2023/10/24 03:24:18;;;;;;;11.80;4.70;;;;;;;11.70;69.27;95006.38;5066291;28;20063;-73
2023/10/24 03:26:43;;;;;;;13.55;5.30;;;;;;;11.57;69.73;95002.22;5067601;28;20024;-73
2023/10/24 03:29:09;;;;;;;11.25;3.83;;;;;;;11.71;69.34;95010.66;5066728;28;20036;-73
2023/10/24 03:31:36;;;;;;;13.30;4.30;;;;;;;11.67;69.11;95014.44;5066592;28;20410;-73
2023/10/24 03:34:01;;;;;;;13.48;4.18;;;;;;;11.63;69.18;95014.72;5065092;28;20037;-73
2023/10/24 03:36:27;;;;;;;10.82;4.07;;;;;;;11.58;69.69;95018.66;5067154;28;20671;-73
2023/10/24 03:38:52;;;;;;;12.13;4.10;;;;;;;11.44;69.13;95018.97;5067873;28;20493;-73
2023/10/24 03:41:18;;;;;;;11.40;3.65;;;;;;;11.40;70.06;95013.22;5066447;28;20052;-73
2023/10/24 03:43:48;;;;;;;11.60;5.60;;;;;;;11.37;70.30;95019.50;5063499;28;20567;-73
2023/10/24 03:46:13;;;;;;;14.63;4.57;;;;;;;11.27;70.94;95016.00;5050898;28;20572;-73
2023/10/24 03:48:39;;;;;;;13.23;4.93;;;;;;;11.48;70.52;95018.59;5066139;28;20306;-73
2023/10/24 03:51:04;;;;;;;10.07;4.22;;;;;;;11.50;70.56;95021.88;5066457;28;20490;-73
2023/10/24 03:53:30;;;;;;;16.95;4.13;;;;;;;11.39;70.38;95017.59;5045816;28;20044;-73
2023/10/24 03:55:57;;;;;;;12.73;4.20;;;;;;;11.15;70.25;94962.41;5048882;28;20037;-73
2023/10/24 03:58:23;;;;;;;12.45;3.95;;;;;;;11.44;70.31;95014.59;5048255;28;20522;-73
2023/10/24 04:00:48;;;;;;;10.90;4.40;;;;;;;11.35;70.55;95010.16;5029751;28;20028;-73
2023/10/24 04:03:14;;;;;;;13.05;4.07;;;;;;;11.29;70.82;95032.31;5045420;28;20518;-73
2023/10/24 04:05:40;;;;;;;12.52;4.68;;;;;;;11.41;70.70;95025.25;5066794;28;20090;-73
2023/10/24 04:08:05;;;;;;;14.15;4.50;;;;;;;11.23;71.23;95030.22;5048143;28;20067;-73
2023/10/24 04:10:33;;;;;;;10.23;4.40;;;;;;;11.08;71.16;95018.44;5066607;28;20028;-73
2023/10/24 04:12:58;;;;;;;13.25;4.25;;;;;;;11.11;71.62;95026.81;5030260;28;20045;-73
2023/10/24 04:15:24;;;;;;;11.07;4.32;;;;;;;11.23;71.25;95031.97;5032572;28;20513;-73
2023/10/24 04:17:49;;;;;;;13.48;4.20;;;;;;;11.30;70.99;95033.13;5064986;28;20354;-73
2023/10/24 04:20:15;;;;;;;14.30;4.07;;;;;;;11.15;71.28;95030.84;5068691;28;20025;-73
2023/10/24 04:22:40;;;;;;;12.38;4.82;;;;;;;11.16;71.42;95040.28;5046951;28;20032;-73
2023/10/24 04:25:06;;;;;;;11.32;3.83;;;;;;;11.26;70.96;95031.75;5065384;28;20036;-73
2023/10/24 04:27:31;;;;;;;8.65;3.80;;;;;;;11.27;70.96;95030.78;5066672;28;20028;-73
2023/10/24 04:29:58;;;;;;;13.07;4.55;;;;;;;11.34;70.53;95030.16;5050285;28;20525;-73
2023/10/24 04:32:24;;;;;;;18.75;3.90;;;;;;;11.13;71.10;95024.91;5045023;28;20059;-73
2023/10/24 04:34:51;;;;;;;10.73;4.53;;;;;;;11.28;70.87;95035.00;5064492;28;20040;-73
2023/10/24 04:37:18;;;;;;;11.38;4.63;;;;;;;11.25;70.96;95041.28;5063463;28;20448;-73
2023/10/24 04:39:43;;;;;;;10.30;4.15;;;;;;;11.29;70.51;95036.69;5020247;28;20518;-73
2023/10/24 04:42:09;;;;;;;11.23;4.95;;;;;;;11.06;71.89;95031.59;5061256;28;20024;-73
2023/10/24 04:44:34;;;;;;;15.40;4.30;;;;;;;11.18;71.73;95047.97;5067380;28;20033;-73
2023/10/24 04:47:00;;;;;;;14.57;5.30;;;;;;;11.13;71.51;95047.50;5067521;28;20483;-73
2023/10/24 04:49:25;;;;;;;14.68;4.88;;;;;;;11.15;71.64;95050.81;5049860;28;20032;-73
2023/10/24 04:51:51;;;;;;;13.15;4.93;;;;;;;11.16;71.42;95048.06;5047084;28;20533;-73
2023/10/24 04:54:17;;;;;;;11.30;4.80;;;;;;;11.17;71.18;95049.75;5065255;28;20039;-73
2023/10/24 04:56:42;;;;;;;15.20;4.00;;;;;;;11.00;70.86;95045.06;5064700;28;20032;-73
2023/10/24 04:59:07;;;;;;;11.50;3.80;;;;;;;11.05;71.19;95050.72;5029085;28;20039;-73
2023/10/24 05:01:37;;;;;;;8.35;4.47;;;;;;;10.88;71.30;95022.66;5064578;28;20407;-73
2023/10/24 05:04:04;;;;;;;10.90;3.92;;;;;;;10.69;72.94;95063.09;5047119;28;20067;-72
2023/10/24 05:06:30;;;;;;;14.15;4.53;;;;;;;10.84;72.42;95055.06;5065963;28;20024;-73
2023/10/24 05:08:55;;;;;;;17.42;4.40;;;;;;;10.87;72.46;95063.44;5065672;28;20063;-73
2023/10/24 05:11:21;;;;;;;13.35;3.90;;;;;;;11.02;72.18;95087.34;5065796;28;20036;-73
2023/10/24 05:13:46;;;;;;;11.82;3.88;;;;;;;10.81;72.43;95065.69;5045463;28;20032;-73
2023/10/24 05:16:12;;;;;;;9.68;4.30;;;;;;;10.98;71.91;95080.78;5065911;28;20348;-73
2023/10/24 05:18:37;;;;;;;12.20;4.25;;;;;;;11.00;71.80;95078.84;5067214;28;20048;-73
2023/10/24 05:21:03;;;;;;;10.38;3.85;;;;;;;11.14;70.81;95102.00;5065886;28;20035;-73
2023/10/24 05:23:29;;;;;;;9.95;3.67;;;;;;;11.14;70.28;95104.59;5062280;28;20036;-73
2023/10/24 05:25:55;;;;;;;11.85;4.35;;;;;;;10.99;70.56;95111.00;5067075;28;20035;-73
2023/10/24 05:28:21;;;;;;;11.15;3.78;;;;;;;10.96;71.40;95108.66;5048717;28;20029;-73
2023/10/24 05:30:46;;;;;;;8.80;4.00;;;;;;;10.85;71.26;95093.09;5066068;28;20025;-73
2023/10/24 05:33:11;;;;;;;13.63;3.97;;;;;;;11.11;70.91;95104.00;5050309;28;20032;-73
2023/10/24 05:35:37;;;;;;;8.57;3.70;;;;;;;11.05;71.14;95104.50;5066495;28;20025;-73
2023/10/24 05:38:02;;;;;;;12.82;4.00;;;;;;;10.87;72.62;95104.19;5057282;28;20486;-73
2023/10/24 05:40:28;;;;;;;14.45;4.93;;;;;;;10.93;71.92;95093.31;5047187;28;20431;-73
2023/10/24 05:42:53;;;;;;;11.77;4.00;;;;;;;11.01;71.66;95098.72;5044464;28;23048;-73
2023/10/24 05:45:21;;;;;;;10.18;4.18;;;;;;;10.95;71.50;95101.81;5067413;28;20028;-73
2023/10/24 05:47:46;;;;;;;9.77;4.70;;;;;;;11.08;71.55;95120.66;5048101;28;20100;-73
2023/10/24 05:50:12;;;;;;;12.75;4.75;;;;;;;10.82;72.78;95103.72;5067654;28;20039;-73
2023/10/24 05:52:37;;;;;;;13.20;4.40;;;;;;;11.03;72.44;95125.44;5052329;28;20414;-73
2023/10/24 05:55:03;;;;;;;13.98;4.75;;;;;;;10.95;72.43;95125.22;5052743;28;20033;-73
2023/10/24 05:57:29;;;;;;;9.40;4.43;;;;;;;10.95;72.51;95117.41;5069165;28;20036;-73
2023/10/24 05:59:55;;;;;;;10.65;4.65;;;;;;;11.16;72.17;95109.66;5054302;28;20032;-73
2023/10/24 06:02:20;;;;;;;15.80;4.70;;;;;;;11.07;72.25;95116.41;5066930;28;20021;-73
2023/10/24 06:04:46;;;;;;;15.45;5.18;;;;;;;11.06;72.26;95109.59;5070833;28;20103;-74
2023/10/24 06:07:11;;;;;;;13.75;4.90;;;;;;;10.97;72.65;95099.91;5068835;28;20029;-73
2023/10/24 06:09:36;;;;;;;14.00;4.97;;;;;;;11.02;72.18;95086.53;5051831;28;20040;-72
2023/10/24 06:12:05;;;;;;;14.80;7.50;;;;;;;10.77;73.27;95085.06;5067885;28;20028;-72
2023/10/24 06:14:32;;;;;;;17.35;5.00;;;;;;;11.01;73.84;95106.53;5051442;28;20434;-75
2023/10/24 06:16:58;;;;;;;13.82;4.65;;;;;;;10.90;74.01;95077.97;5067979;28;20037;-73
2023/10/24 06:19:23;;;;;;;9.35;4.63;;;;;;;11.13;73.30;95104.69;5068628;28;20051;-73
2023/10/24 06:21:49;;;;;;;11.55;4.82;;;;;;;11.09;73.69;95093.72;5066387;28;20027;-76
2023/10/24 06:24:14;;;;;;;12.50;5.43;;;;;;;11.50;72.78;95107.72;5066643;28;20032;-74
2023/10/24 06:26:40;;;;;;;11.55;4.40;;;;;;;11.38;72.10;95059.31;5061098;28;20029;-75
2023/10/24 06:29:05;;;;;;;10.48;4.70;;;;;;;12.16;70.87;95109.28;5033826;28;20044;-75
2023/10/24 06:31:31;;;;;;;15.30;4.90;;;;;;;12.75;68.96;95104.16;5065907;28;20032;-74
2023/10/24 06:33:56;;;;;;;9.38;4.38;;;;;;;13.57;65.89;95104.84;5033703;28;20078;-73
2023/10/24 06:36:21;;;;;;;12.43;4.70;;;;;;;14.04;64.62;95097.06;5066037;28;20032;-75
2023/10/24 06:38:47;;;;;;;14.05;5.00;;;;;;;14.70;61.38;95056.94;5052279;28;20083;-74
2023/10/24 06:41:13;;;;;;;19.45;6.95;;;;;;;15.22;59.75;95058.97;5068705;28;20078;-73
2023/10/24 06:43:39;;;;;;;18.13;7.07;;;;;;;15.24;60.24;95098.88;5067238;28;20036;-76
2023/10/24 06:46:05;;;;;;;18.15;6.20;;;;;;;14.79;60.50;95045.59;5065770;28;20517;-74
2023/10/24 06:48:31;;;;;;;15.55;6.43;;;;;;;15.86;58.60;95099.78;5045527;28;20066;-74
2023/10/24 06:50:57;;;;;;;18.13;7.35;;;;;;;16.03;57.46;95101.53;5031050;28;20037;-73
2023/10/24 06:53:23;;;;;;;18.35;6.32;;;;;;;16.18;57.27;95087.88;5032424;28;20090;-74
2023/10/24 06:55:48;;;;;;;20.05;6.55;;;;;;;16.42;56.33;95082.78;5056267;28;20024;-74
2023/10/24 06:58:14;;;;;;;16.90;5.97;;;;;;;16.77;54.77;95093.28;5034199;28;20040;-73
2023/10/24 07:00:39;;;;;;;12.32;4.90;;;;;;;16.64;55.57;95089.28;5050241;28;20564;-74
2023/10/24 07:03:05;;;;;;;16.20;5.53;;;;;;;16.44;56.13;95093.94;5048825;28;20033;-73
2023/10/24 07:05:30;;;;;;;14.85;4.90;;;;;;;17.07;54.45;95078.78;5031437;28;20032;-74
2023/10/24 07:07:55;;;;;;;16.30;5.88;;;;;;;17.08;54.47;95083.88;5066119;28;20036;-74
2023/10/24 07:10:21;;;;;;;17.13;6.80;;;;;;;17.46;53.73;95089.50;5068881;28;20024;-74
2023/10/24 07:12:46;;;;;;;22.35;7.55;;;;;;;18.23;51.39;95068.97;5053613;28;20040;-73
2023/10/24 07:15:12;;;;;;;19.13;6.38;;;;;;;18.67;49.99;95076.41;5052306;28;20418;-74
2023/10/24 07:17:37;;;;;;;21.10;7.28;;;;;;;19.28;48.34;95075.78;5051782;28;20483;-75
2023/10/24 07:20:04;;;;;;;18.52;7.90;;;;;;;20.21;46.47;95069.50;5052679;28;20028;-75
2023/10/24 07:22:30;;;;;;;17.63;7.00;;;;;;;20.34;46.06;95071.50;5051496;28;20119;-75
2023/10/24 07:24:56;;;;;;;18.92;7.03;;;;;;;20.33;45.61;95069.88;5053142;28;20040;-75
2023/10/24 07:27:21;;;;;;;16.77;7.20;;;;;;;20.92;44.64;95061.94;5036607;28;20090;-73
2023/10/24 07:29:47;;;;;;;20.55;9.27;;;;;;;21.28;43.07;95061.13;5036244;28;20025;-74
2023/10/24 07:32:13;;;;;;;18.55;8.18;;;;;;;22.02;41.56;95056.38;5070791;28;20082;-75
2023/10/24 07:34:41;;;;;;;22.30;8.70;;;;;;;22.07;41.63;95053.16;5070946;28;20028;-75
2023/10/24 07:37:09;;;;;;;18.48;7.88;;;;;;;21.75;41.29;95033.34;5068521;28;20399;-74
2023/10/24 07:39:35;;;;;;;22.95;7.97;;;;;;;22.29;41.26;95046.81;5035278;28;20068;-75
2023/10/24 07:42:01;;;;;;;21.40;7.47;;;;;;;22.41;40.62;95033.06;5052945;28;20079;-75
2023/10/24 07:44:27;;;;;;;17.83;6.90;;;;;;;22.71;39.72;95042.38;5071415;28;20490;-75
2023/10/24 07:46:52;;;;;;;19.52;7.47;;;;;;;21.98;40.88;95019.91;5054547;28;20506;-75
2023/10/24 07:49:18;;;;;;;18.98;6.40;;;;;;;20.86;43.10;95013.34;5054557;28;20106;-75
2023/10/24 07:51:43;;;;;;;19.17;6.38;;;;;;;20.55;43.85;95018.03;5054467;28;20029;-73
2023/10/24 07:54:10;;;;;;;18.92;5.95;;;;;;;20.67;44.02;95035.03;5071119;28;20040;-73
2023/10/24 07:56:37;;;;;;;17.85;6.15;;;;;;;20.01;45.49;95040.19;5071114;28;20039;-73
2023/10/24 07:59:03;;;;;;;18.02;5.72;;;;;;;19.75;46.25;95040.56;5054425;28;20029;-74
2023/10/24 08:01:29;;;;;;;19.38;6.20;;;;;;;19.43;46.68;95034.56;5071237;28;20039;-74
2023/10/24 08:03:54;;;;;;;14.35;5.50;;;;;;;19.14;47.82;95038.72;5037698;28;20024;-75
2023/10/24 08:06:20;;;;;;;16.13;5.78;;;;;;;19.05;47.91;95034.47;5037571;28;20419;-75
2023/10/24 08:08:45;;;;;;;16.80;5.85;;;;;;;19.00;48.54;95042.09;5070854;28;20043;-75
2023/10/24 08:11:11;;;;;;;15.68;5.22;;;;;;;18.97;48.82;95043.25;5054352;28;20029;-75
2023/10/24 08:13:37;;;;;;;13.65;4.75;;;;;;;18.59;49.70;95042.25;5053954;28;20037;-75
2023/10/24 08:16:02;;;;;;;17.63;4.80;;;;;;;18.34;50.55;95038.06;5037356;28;20430;-74
2023/10/24 08:18:27;;;;;;;16.65;5.05;;;;;;;18.12;50.99;95029.09;5053830;28;20055;-75
2023/10/24 08:20:53;;;;;;;16.55;5.25;;;;;;;18.19;51.15;95033.50;5070597;28;20107;-75
2023/10/24 08:23:18;;;;;;;20.33;5.53;;;;;;;18.17;51.48;95034.66;5071662;28;20028;-74
2023/10/24 08:25:45;;;;;;;11.73;4.47;;;;;;;18.19;51.16;95036.13;5054049;28;20102;-74
2023/10/24 08:28:11;;;;;;;18.42;5.10;;;;;;;18.15;51.27;95034.00;5053652;28;20032;-74
2023/10/24 08:30:36;;;;;;;17.20;4.80;;;;;;;18.04;51.36;95040.44;5053657;28;20025;-74
2023/10/24 08:33:02;;;;;;;13.95;4.30;;;;;;;18.07;51.30;95019.88;5070309;28;20449;-75
2023/10/24 08:35:28;;;;;;;12.48;5.50;;;;;;;17.80;51.05;94991.34;5070311;28;20029;-74
2023/10/24 08:37:54;;;;;;;17.05;4.00;;;;;;;18.03;50.85;95021.22;5037090;28;20041;-75
2023/10/24 08:40:20;;;;;;;14.55;4.28;;;;;;;18.00;50.36;94987.38;5036948;28;20525;-74
2023/10/24 08:42:45;;;;;;;10.27;3.83;;;;;;;18.43;49.61;95019.44;5036989;28;20078;-74
2023/10/24 08:45:11;;;;;;;13.23;3.63;;;;;;;18.54;48.36;95010.38;5053429;28;20498;-75
2023/10/24 08:47:37;;;;;;;12.82;4.32;;;;;;;18.45;49.37;94999.06;5053347;28;20399;-75
2023/10/24 08:50:02;;;;;;;11.43;4.00;;;;;;;18.70;47.49;94999.75;5036701;28;20028;-74
2023/10/24 08:52:30;;;;;;;15.02;3.53;;;;;;;18.64;48.76;95000.47;5053284;28;20441;-74
2023/10/24 08:54:57;;;;;;;12.25;3.83;;;;;;;18.64;48.34;94997.84;5037101;28;20067;-74
2023/10/24 08:57:24;;;;;;;16.70;4.05;;;;;;;18.42;48.36;94988.06;5069744;28;20036;-74
2023/10/24 08:59:50;;;;;;;12.57;3.80;;;;;;;18.49;48.73;94996.91;5053492;28;20050;-74
2023/10/24 09:02:15;;;;;;;16.85;4.03;;;;;;;18.62;48.47;94975.31;5036378;28;20498;-74
2023/10/24 09:04:41;;;;;;;12.45;3.45;;;;;;;19.06;47.40;94987.91;5036725;28;20032;-74
2023/10/24 09:07:06;;;;;;;12.50;3.42;;;;;;;19.01;48.35;94985.81;5069745;28;20043;-74
2023/10/24 09:09:31;;;;;;;11.15;2.78;;;;;;;18.90;48.31;94983.56;5069994;28;20478;-73
2023/10/24 09:11:59;;;;;;;11.73;3.50;;;;;;;18.83;48.10;94972.91;5052997;28;20490;-73
2023/10/24 09:14:25;;;;;;;13.40;4.10;;;;;;;18.68;48.52;94964.91;5053150;28;20078;-74
2023/10/24 09:16:58;;;;;;;13.90;3.58;;;;;;;18.84;48.44;94973.75;5036638;28;20124;-74
2023/10/24 09:19:23;;;;;;;18.67;3.65;;;;;;;18.80;48.16;94969.81;5036658;28;20131;-74
2023/10/24 09:21:49;;;;;;;11.15;3.58;;;;;;;18.84;47.64;94944.78;5036321;28;20043;-74
2023/10/24 09:24:16;;;;;;;18.15;4.07;;;;;;;19.05;46.96;94926.53;5035748;28;20023;-74
2023/10/24 09:26:59;;;;;;;14.30;3.15;;;;;;;19.28;46.98;94952.88;5036292;28;20028;-74
2023/10/24 09:29:25;;;;;;;16.23;4.03;;;;;;;19.09;47.07;94954.16;5069640;28;20035;-74
2023/10/24 09:31:51;;;;;;;13.48;3.92;;;;;;;19.10;46.39;94937.34;5036240;28;20036;-74
2023/10/24 09:34:16;;;;;;;14.05;3.38;;;;;;;19.24;46.92;94956.03;5069326;28;20024;-74
2023/10/24 09:36:42;;;;;;;13.30;3.08;;;;;;;19.16;47.12;94939.28;5052746;28;20074;-74
2023/10/24 09:39:11;;;;;;;14.77;3.13;;;;;;;19.40;46.42;94940.09;5035995;28;20028;-74
2023/10/24 09:41:41;;;;;;;11.02;3.60;;;;;;;19.27;46.39;94937.22;5036162;28;20029;-73
2023/10/24 09:44:06;;;;;;;19.45;3.40;;;;;;;19.30;46.59;94945.59;5036420;28;20034;-74
2023/10/24 09:46:31;;;;;;;14.85;3.30;;;;;;;19.25;46.02;94926.88;5069371;28;20037;-74
2023/10/24 09:48:57;;;;;;;13.18;3.58;;;;;;;19.38;46.14;94939.44;5069409;28;20410;-74
2023/10/24 09:51:22;;;;;;;10.27;3.00;;;;;;;19.38;45.80;94940.25;5035972;28;20438;-74
2023/10/24 09:53:51;;;;;;;12.07;3.67;;;;;;;19.43;45.49;94945.00;5069149;28;20024;-74
2023/10/24 09:56:17;;;;;;;10.95;2.97;;;;;;;19.50;45.66;94932.75;5052487;28;20098;-74
2023/10/24 09:58:43;;;;;;;11.77;3.20;;;;;;;19.60;45.44;94938.56;5052649;28;20040;-74
2023/10/24 10:01:09;;;;;;;11.00;2.63;;;;;;;19.65;45.22;94927.50;5052592;28;20127;-74
2023/10/24 10:03:35;;;;;;;8.20;2.58;;;;;;;19.70;44.55;94924.38;5069236;28;20036;-74
2023/10/24 10:06:04;;;;;;;10.90;3.10;;;;;;;19.51;44.44;94897.50;5069103;28;20115;-74
2023/10/24 10:08:30;;;;;;;10.88;2.92;;;;;;;19.62;44.60;94896.25;5036055;28;20051;-74
2023/10/24 10:10:55;;;;;;;13.80;3.30;;;;;;;19.80;45.00;94909.09;5035966;28;20120;-75
2023/10/24 10:13:22;;;;;;;9.25;3.05;;;;;;;20.08;43.82;94915.34;5052389;28;20028;-74
2023/10/24 10:16:34;;;;;;;11.23;3.70;;;;;;;20.18;43.95;94909.00;5052509;28;20036;-73
2023/10/24 10:19:29;;;;;;;12.93;3.08;;;;;;;20.20;44.30;94912.28;5056675;28;20044;-74
2023/10/24 10:21:54;;;;;;;12.52;3.00;;;;;;;20.15;44.31;94909.38;5069065;28;20062;-74
2023/10/24 10:24:54;;;;;;;11.35;3.00;;;;;;;20.12;43.65;94900.00;5070474;28;20467;-73
2023/10/24 10:27:35;;;;;;;9.35;3.00;;;;;;;20.15;43.21;94896.19;5069060;28;20032;-74
2023/10/24 10:30:03;;;;;;;8.90;2.67;;;;;;;20.18;44.06;94899.25;5037344;28;20115;-74
2023/10/24 10:32:32;;;;;;;11.43;2.90;;;;;;;20.14;43.62;94902.44;5070143;28;20021;-74
2023/10/24 10:34:59;;;;;;;16.10;3.47;;;;;;;20.07;44.83;94884.72;5069655;28;20037;-74
2023/10/24 10:37:30;;;;;;;17.55;3.50;;;;;;;19.95;44.68;94880.94;5055665;28;20037;-74
2023/10/24 10:40:14;;;;;;;10.35;3.03;;;;;;;20.33;44.46;94891.31;5072818;28;20024;-74
2023/10/24 10:42:48;;;;;;;11.15;3.45;;;;;;;20.58;43.98;94881.25;5072271;28;20045;-74
2023/10/24 10:45:27;;;;;;;9.57;3.30;;;;;;;20.27;43.44;94858.59;5072299;28;20033;-74
2023/10/24 10:47:53;;;;;;;14.85;3.47;;;;;;;20.36;43.20;94875.09;5039141;28;20028;-74
2023/10/24 10:50:44;;;;;;;11.48;3.45;;;;;;;20.41;43.87;94875.38;5055587;28;20036;-74
2023/10/24 10:53:14;;;;;;;12.45;3.20;;;;;;;20.48;43.21;94867.56;5053398;28;20041;-74
2023/10/24 10:56:11;;;;;;;13.82;3.15;;;;;;;20.62;42.26;94852.72;5072211;28;20039;-74
2023/10/24 10:58:45;;;;;;;12.38;2.78;;;;;;;20.55;42.20;94857.09;5056898;28;20028;-74
2023/10/24 11:01:28;;;;;;;9.13;2.75;;;;;;;20.68;41.91;94844.03;5055398;28;20041;-74
2023/10/24 11:03:56;;;;;;;13.52;2.92;;;;;;;20.79;41.59;94846.16;5072226;28;20127;-74
2023/10/24 11:06:22;;;;;;;12.27;3.10;;;;;;;20.63;42.37;94834.03;5072052;28;20481;-74
2023/10/24 11:08:50;;;;;;;11.73;3.50;;;;;;;20.74;41.50;94830.06;5038595;28;20059;-74
2023/10/24 11:11:19;;;;;;;12.35;3.17;;;;;;;20.70;42.47;94821.72;5069452;28;20044;-74
2023/10/24 11:13:46;;;;;;;13.00;3.55;;;;;;;20.58;42.14;94806.56;5055158;28;20024;-74
2023/10/24 11:16:12;;;;;;;11.43;3.30;;;;;;;20.69;42.22;94816.63;5039040;28;20048;-74
2023/10/24 11:18:38;;;;;;;9.35;3.13;;;;;;;20.81;42.46;94809.84;5038320;28;20049;-74
2023/10/24 11:21:05;;;;;;;10.10;2.92;;;;;;;21.22;40.46;94809.13;5038489;28;20138;-74
2023/10/24 11:23:32;;;;;;;13.80;4.18;;;;;;;21.22;40.25;94811.75;5038574;28;20040;-74